Time;durP1;ratioP1;P1;durP2;ratioP2;P2;SDS_P1;SDS_P2;PMS_P1;PMS_P2;Temp;Humidity;BMP_temperature;BMP_pressure;BME280_temperature;BME280_humidity;BME280_pressure;Samples;Min_cycle;Max_cycle;Signal;HPM_P1;HPM_P2
2021/05/21 00:02:19;;;;;;;1.67;0.50;;;;;;;;;;5034866;28;20195;-73
2021/05/21 00:04:45;;;;;;;0.67;0.50;;;;;;;;;;5033230;28;20175;-73
2021/05/21 00:07:11;;;;;;;0.40;0.40;;;;;;;;;;5034241;28;20601;-73
2021/05/21 00:09:37;;;;;;;1.43;0.50;;;;;;;;;;5033110;28;20186;-73
2021/05/21 00:12:03;;;;;;;0.67;0.67;;;;;;;;;;5016325;28;20696;-73
2021/05/21 00:14:29;;;;;;;0.90;0.60;;;;;;;;;;5034184;28;20457;-73
2021/05/21 00:16:55;;;;;;;0.70;0.50;;;;;;;;;;5032833;28;20229;-73
2021/05/21 00:19:21;;;;;;;1.10;0.50;;;;;;;;;;5032991;28;20171;-73
2021/05/21 00:21:47;;;;;;;0.60;0.50;;;;;;;;;;5033009;28;20202;-74
2021/05/21 00:24:12;;;;;;;0.50;0.50;;;;;;;;;;5033164;28;20606;-73
2021/05/21 00:26:38;;;;;;;1.07;0.67;;;;;;;;;;5033006;28;20179;-73
2021/05/21 00:29:06;;;;;;;0.93;0.40;;;;;;;;;;5034035;28;20175;-73
2021/05/21 00:31:32;;;;;;;2.03;0.50;;;;;;;;;;5032375;28;20240;-73
2021/05/21 00:33:58;;;;;;;0.93;0.40;;;;;;;;;;5016411;28;20270;-73
2021/05/21 00:36:24;;;;;;;1.00;0.60;;;;;;;;;;5032872;28;20578;-73
2021/05/21 00:38:50;;;;;;;1.27;0.60;;;;;;;;;;5033896;28;20179;-73
2021/05/21 00:41:16;;;;;;;2.83;0.53;;;;;;;;;;5032474;28;20219;-73
2021/05/21 00:43:42;;;;;;;0.40;0.40;;;;;;;;;;5032559;28;20237;-73
2021/05/21 00:46:08;;;;;;;0.77;0.50;;;;;;;;;;5032755;28;20206;-73
2021/05/21 00:48:34;;;;;;;0.50;0.50;;;;;;;;;;5032719;28;20607;-73
2021/05/21 00:51:00;;;;;;;0.50;0.50;;;;;;;;;;5033542;28;20195;-73
2021/05/21 00:53:29;;;;;;;0.50;0.50;;;;;;;;;;5033325;28;20219;-73
2021/05/21 00:55:56;;;;;;;0.80;0.40;;;;;;;;;;5032399;28;20193;-73
2021/05/21 00:58:23;;;;;;;0.50;0.50;;;;;;;;;;5032344;28;20243;-73
2021/05/21 01:00:51;;;;;;;0.47;0.47;;;;;;;;;;5033567;28;20308;-73
2021/05/21 01:03:17;;;;;;;0.87;0.40;;;;;;;;;;5032579;28;20171;-73
2021/05/21 01:05:43;;;;;;;0.70;0.50;;;;;;;;;;5016020;28;20258;-73
2021/05/21 01:08:09;;;;;;;0.37;0.37;;;;;;;;;;5033352;28;20171;-73
2021/05/21 01:10:35;;;;;;;1.17;0.60;;;;;;;;;;5031979;28;20233;-73
2021/05/21 01:13:01;;;;;;;2.30;0.60;;;;;;;;;;5033117;28;20187;-73
2021/05/21 01:15:27;;;;;;;0.40;0.40;;;;;;;;;;5033195;28;20179;-73
2021/05/21 01:17:53;;;;;;;0.70;0.60;;;;;;;;;;5033403;28;20654;-73
2021/05/21 01:20:19;;;;;;;0.47;0.47;;;;;;;;;;5031812;28;20301;-73
2021/05/21 01:22:45;;;;;;;0.93;0.70;;;;;;;;;;5032067;28;20183;-73
2021/05/21 01:25:11;;;;;;;1.33;0.60;;;;;;;;;;5031945;28;20175;-73
2021/05/21 01:27:37;;;;;;;0.50;0.50;;;;;;;;;;5031917;28;20229;-73
2021/05/21 01:30:06;;;;;;;1.33;0.50;;;;;;;;;;5015393;28;20268;-73
2021/05/21 01:32:32;;;;;;;0.60;0.50;;;;;;;;;;5015514;28;20706;-73
2021/05/21 01:34:59;;;;;;;0.53;0.50;;;;;;;;;;5032973;28;20185;-73
2021/05/21 01:37:25;;;;;;;0.50;0.40;;;;;;;;;;5031773;28;20179;-73
2021/05/21 01:39:52;;;;;;;0.70;0.40;;;;;;;;;;5032947;28;20326;-73
2021/05/21 01:42:18;;;;;;;1.47;0.50;;;;;;;;;;5031430;28;20270;-73
2021/05/21 01:44:44;;;;;;;0.70;0.60;;;;;;;;;;5031335;28;20185;-73
2021/05/21 01:47:10;;;;;;;0.40;0.40;;;;;;;;;;5031719;28;20229;-73
2021/05/21 01:49:36;;;;;;;0.40;0.40;;;;;;;;;;5031405;28;20246;-73
2021/05/21 01:52:02;;;;;;;0.80;0.40;;;;;;;;;;5031286;28;20293;-73
2021/05/21 01:54:29;;;;;;;0.57;0.50;;;;;;;;;;5031196;28;20598;-73
2021/05/21 01:56:58;;;;;;;0.40;0.40;;;;;;;;;;5031380;28;20186;-73
2021/05/21 01:59:24;;;;;;;0.50;0.40;;;;;;;;;;5031478;28;20175;-73
2021/05/21 02:01:50;;;;;;;0.60;0.50;;;;;;;;;;5015013;28;20301;-73
2021/05/21 02:04:16;;;;;;;2.30;0.50;;;;;;;;;;5032047;28;20178;-73
2021/05/21 02:06:42;;;;;;;0.73;0.60;;;;;;;;;;5031079;28;20205;-73
2021/05/21 02:09:09;;;;;;;0.77;0.57;;;;;;;;;;5031644;28;20272;-73
2021/05/21 02:11:35;;;;;;;0.73;0.50;;;;;;;;;;5030786;28;20706;-73
2021/05/21 02:14:01;;;;;;;1.30;0.50;;;;;;;;;;5032588;28;20178;-74
2021/05/21 02:16:33;;;;;;;1.70;0.60;;;;;;;;;;5031514;28;20178;-73
2021/05/21 02:18:59;;;;;;;0.97;0.70;;;;;;;;;;5032158;28;20175;-73
2021/05/21 02:21:31;;;;;;;3.00;0.60;;;;;;;;;;5032014;28;20217;-73
2021/05/21 02:23:57;;;;;;;0.47;0.40;;;;;;;;;;5032346;28;20630;-73
2021/05/21 02:26:23;;;;;;;1.83;0.67;;;;;;;;;;5031306;28;20178;-73
2021/05/21 02:28:49;;;;;;;0.67;0.60;;;;;;;;;;5030907;28;20559;-73
2021/05/21 02:31:15;;;;;;;1.57;0.60;;;;;;;;;;5014894;28;20586;-74
2021/05/21 02:33:41;;;;;;;0.70;0.50;;;;;;;;;;5032320;28;20657;-73
2021/05/21 02:36:07;;;;;;;0.47;0.40;;;;;;;;;;5031324;28;20265;-73
2021/05/21 02:38:33;;;;;;;0.50;0.50;;;;;;;;;;5014466;28;20288;-73
2021/05/21 02:40:59;;;;;;;0.70;0.50;;;;;;;;;;5014752;28;20252;-73
2021/05/21 02:43:25;;;;;;;0.97;0.57;;;;;;;;;;5031450;28;20182;-73
2021/05/21 02:45:51;;;;;;;1.97;0.50;;;;;;;;;;5014337;28;20178;-73
2021/05/21 02:48:17;;;;;;;0.40;0.40;;;;;;;;;;5030968;28;20182;-73
2021/05/21 02:50:43;;;;;;;0.70;0.60;;;;;;;;;;5030589;28;20215;-73
2021/05/21 02:53:09;;;;;;;0.40;0.40;;;;;;;;;;5032041;28;20183;-73
2021/05/21 02:55:35;;;;;;;2.50;0.50;;;;;;;;;;5030909;28;20269;-73
2021/05/21 02:58:02;;;;;;;0.80;0.60;;;;;;;;;;5031134;28;20178;-73
2021/05/21 03:00:28;;;;;;;0.53;0.50;;;;;;;;;;5031807;28;20213;-74
2021/05/21 03:02:54;;;;;;;0.60;0.50;;;;;;;;;;5030853;28;20178;-73
2021/05/21 03:05:22;;;;;;;0.83;0.40;;;;;;;;;;5032262;28;20182;-73
2021/05/21 03:07:55;;;;;;;1.70;0.50;;;;;;;;;;5030565;28;20661;-73
2021/05/21 03:10:21;;;;;;;0.40;0.40;;;;;;;;;;5031531;28;20183;-73
2021/05/21 03:12:47;;;;;;;1.00;0.50;;;;;;;;;;5030681;28;20214;-73
2021/05/21 03:15:13;;;;;;;0.43;0.40;;;;;;;;;;5031196;28;20217;-73
2021/05/21 03:17:39;;;;;;;0.83;0.40;;;;;;;;;;5033772;28;20190;-73
2021/05/21 03:20:06;;;;;;;0.50;0.50;;;;;;;;;;5034682;28;20213;-72
2021/05/21 03:22:32;;;;;;;1.67;0.50;;;;;;;;;;5017569;28;20216;-73
2021/05/21 03:25:01;;;;;;;0.40;0.40;;;;;;;;;;5034179;28;20228;-73
2021/05/21 03:27:27;;;;;;;0.87;0.70;;;;;;;;;;5033971;28;20201;-73
2021/05/21 03:29:53;;;;;;;1.37;0.73;;;;;;;;;;5017742;28;20218;-73
2021/05/21 03:32:19;;;;;;;1.50;0.77;;;;;;;;;;5033755;28;20260;-73
2021/05/21 03:34:45;;;;;;;1.37;0.47;;;;;;;;;;5033937;28;20188;-73
2021/05/21 03:37:11;;;;;;;1.07;0.50;;;;;;;;;;5033811;28;20247;-74
2021/05/21 03:39:38;;;;;;;0.60;0.60;;;;;;;;;;5035052;28;20292;-74
2021/05/21 03:42:04;;;;;;;2.10;0.50;;;;;;;;;;5033694;28;20221;-73
2021/05/21 03:44:30;;;;;;;0.70;0.47;;;;;;;;;;5017682;28;20182;-73
2021/05/21 03:46:57;;;;;;;0.50;0.50;;;;;;;;;;5035138;28;20171;-73
2021/05/21 03:49:23;;;;;;;0.40;0.40;;;;;;;;;;5033863;28;20243;-73
2021/05/21 03:51:50;;;;;;;0.60;0.57;;;;;;;;;;5017061;28;20206;-74
2021/05/21 03:54:16;;;;;;;0.50;0.30;;;;;;;;;;5033754;28;20247;-74
2021/05/21 03:56:42;;;;;;;1.67;0.60;;;;;;;;;;5033713;28;20650;-74
2021/05/21 03:59:08;;;;;;;1.17;0.77;;;;;;;;;;5033730;28;20229;-73
2021/05/21 04:01:34;;;;;;;0.40;0.40;;;;;;;;;;5033587;28;20761;-74
2021/05/21 04:03:59;;;;;;;2.67;0.60;;;;;;;;;;5017390;28;20722;-74
2021/05/21 04:06:25;;;;;;;0.40;0.30;;;;;;;;;;5034999;28;20213;-73
2021/05/21 04:08:51;;;;;;;0.50;0.50;;;;;;;;;;5034772;28;20179;-74
2021/05/21 04:11:17;;;;;;;0.43;0.43;;;;;;;;;;5034769;28;20609;-74
2021/05/21 04:13:43;;;;;;;0.47;0.47;;;;;;;;;;5033438;28;20270;-73
2021/05/21 04:16:13;;;;;;;0.70;0.63;;;;;;;;;;5033325;28;20186;-74
2021/05/21 04:18:39;;;;;;;0.40;0.40;;;;;;;;;;5033153;28;20266;-73
2021/05/21 04:21:05;;;;;;;0.40;0.40;;;;;;;;;;5032688;28;20332;-73
2021/05/21 04:23:31;;;;;;;1.40;0.50;;;;;;;;;;5033194;28;20600;-73
2021/05/21 04:25:57;;;;;;;0.97;0.50;;;;;;;;;;5033123;28;20184;-74
2021/05/21 04:28:23;;;;;;;0.60;0.60;;;;;;;;;;5032391;28;20547;-73
2021/05/21 04:30:51;;;;;;;0.80;0.50;;;;;;;;;;5016268;28;20275;-73
2021/05/21 04:33:17;;;;;;;2.40;0.70;;;;;;;;;;5034011;28;20185;-73
2021/05/21 04:35:43;;;;;;;0.33;0.33;;;;;;;;;;5032768;28;20186;-74
2021/05/21 04:38:09;;;;;;;0.57;0.50;;;;;;;;;;5033828;28;20214;-73
2021/05/21 04:40:35;;;;;;;0.90;0.50;;;;;;;;;;5033606;28;20203;-74
2021/05/21 04:43:01;;;;;;;1.97;0.40;;;;;;;;;;5032809;28;20182;-74
2021/05/21 04:45:27;;;;;;;0.50;0.50;;;;;;;;;;5033732;28;20178;-73
2021/05/21 04:47:53;;;;;;;1.37;0.40;;;;;;;;;;5016234;28;20278;-74
2021/05/21 04:50:19;;;;;;;1.27;0.60;;;;;;;;;;5032389;28;20184;-73
2021/05/21 04:52:45;;;;;;;0.53;0.40;;;;;;;;;;5032537;28;20642;-73
2021/05/21 04:55:11;;;;;;;1.13;0.50;;;;;;;;;;5032376;28;20191;-74
2021/05/21 04:57:37;;;;;;;0.40;0.40;;;;;;;;;;5032317;28;20194;-73
2021/05/21 05:00:04;;;;;;;2.60;0.60;;;;;;;;;;5032336;28;20206;-73
2021/05/21 05:02:30;;;;;;;1.30;0.70;;;;;;;;;;5032026;28;20206;-73
2021/05/21 05:04:56;;;;;;;0.87;0.40;;;;;;;;;;5033566;28;20243;-74
2021/05/21 05:07:22;;;;;;;1.00;0.40;;;;;;;;;;5031891;28;20182;-73
2021/05/21 05:09:48;;;;;;;0.50;0.43;;;;;;;;;;5031926;28;20179;-74
2021/05/21 05:12:14;;;;;;;0.37;0.37;;;;;;;;;;5031612;28;20202;-74
2021/05/21 05:14:39;;;;;;;0.80;0.47;;;;;;;;;;5032007;28;20171;-74
2021/05/21 05:17:05;;;;;;;0.60;0.50;;;;;;;;;;5033016;28;20179;-74
2021/05/21 05:19:32;;;;;;;1.13;0.40;;;;;;;;;;5031838;28;20261;-73
2021/05/21 05:21:58;;;;;;;0.80;0.40;;;;;;;;;;5032711;28;20579;-74
2021/05/21 05:24:24;;;;;;;0.73;0.40;;;;;;;;;;5031807;28;20177;-74
2021/05/21 05:26:50;;;;;;;0.77;0.60;;;;;;;;;;5031647;28;20175;-74
2021/05/21 05:29:16;;;;;;;2.10;0.50;;;;;;;;;;5031829;28;20623;-74
2021/05/21 05:31:46;;;;;;;0.60;0.40;;;;;;;;;;5031581;28;20225;-73
2021/05/21 05:34:12;;;;;;;0.50;0.50;;;;;;;;;;5031464;28;20209;-73
2021/05/21 05:36:38;;;;;;;0.63;0.40;;;;;;;;;;5032567;28;20205;-74
2021/05/21 05:39:05;;;;;;;0.40;0.37;;;;;;;;;;5032800;28;20559;-73
2021/05/21 05:41:31;;;;;;;3.83;0.67;;;;;;;;;;5032443;28;20612;-74
2021/05/21 05:43:57;;;;;;;0.50;0.40;;;;;;;;;;5031468;28;20250;-74
2021/05/21 05:46:23;;;;;;;0.97;0.50;;;;;;;;;;5032692;28;20673;-73
2021/05/21 05:48:50;;;;;;;0.70;0.50;;;;;;;;;;5031388;28;20556;-74
2021/05/21 05:51:16;;;;;;;1.03;0.50;;;;;;;;;;5032327;28;20191;-73
2021/05/21 05:53:42;;;;;;;1.07;0.43;;;;;;;;;;5031289;28;20232;-73
2021/05/21 05:56:08;;;;;;;0.67;0.47;;;;;;;;;;5031243;28;20317;-73
2021/05/21 05:58:33;;;;;;;0.93;0.60;;;;;;;;;;5031164;28;20183;-74
2021/05/21 06:00:59;;;;;;;0.43;0.40;;;;;;;;;;5032090;28;20240;-73
2021/05/21 06:03:28;;;;;;;0.40;0.40;;;;;;;;;;5014714;28;20634;-73
2021/05/21 06:05:54;;;;;;;0.73;0.60;;;;;;;;;;5032630;28;20171;-74
2021/05/21 06:08:20;;;;;;;1.03;0.50;;;;;;;;;;5032337;28;20179;-73
2021/05/21 06:10:46;;;;;;;0.63;0.47;;;;;;;;;;5030810;28;20195;-73
2021/05/21 06:13:12;;;;;;;2.13;0.67;;;;;;;;;;5030957;28;20183;-74
2021/05/21 06:15:38;;;;;;;0.67;0.50;;;;;;;;;;5031044;28;20266;-74
2021/05/21 06:18:04;;;;;;;0.60;0.50;;;;;;;;;;5031043;28;20210;-74
2021/05/21 06:20:31;;;;;;;1.47;0.60;;;;;;;;;;5014316;28;20210;-73
2021/05/21 06:22:57;;;;;;;1.23;0.50;;;;;;;;;;5014560;28;20221;-74
2021/05/21 06:28:26;;;;;;;0.80;0.50;;;;;;;;;;4998305;28;20186;-74
2021/05/21 06:30:52;;;;;;;0.60;0.60;;;;;;;;;;5026472;28;20229;-74
2021/05/21 06:33:18;;;;;;;1.73;0.50;;;;;;;;;;5030853;28;20182;-74
2021/05/21 06:35:45;;;;;;;0.30;0.30;;;;;;;;;;5030924;28;20643;-73
2021/05/21 06:38:11;;;;;;;1.50;0.60;;;;;;;;;;5030545;28;20175;-74
2021/05/21 06:40:37;;;;;;;0.70;0.50;;;;;;;;;;5030291;28;20202;-73
2021/05/21 06:43:07;;;;;;;0.37;0.37;;;;;;;;;;5031779;28;20254;-74
2021/05/21 06:45:33;;;;;;;0.60;0.43;;;;;;;;;;5030693;28;20179;-73
2021/05/21 06:47:59;;;;;;;2.77;0.60;;;;;;;;;;5030689;28;20190;-74
2021/05/21 06:50:25;;;;;;;1.50;0.60;;;;;;;;;;5032815;28;20182;-73
2021/05/21 06:52:51;;;;;;;1.93;0.50;;;;;;;;;;5035482;28;20183;-73
2021/05/21 06:55:17;;;;;;;1.40;0.80;;;;;;;;;;5034435;28;20210;-74
2021/05/21 06:57:43;;;;;;;3.30;0.60;;;;;;;;;;5034268;28;20186;-74
2021/05/21 07:00:09;;;;;;;0.87;0.70;;;;;;;;;;5034292;28;20209;-74
2021/05/21 07:02:35;;;;;;;0.93;0.53;;;;;;;;;;5033775;28;20685;-73
2021/05/21 07:05:01;;;;;;;0.50;0.50;;;;;;;;;;5017687;28;20186;-74
2021/05/21 07:07:30;;;;;;;2.13;0.80;;;;;;;;;;5035175;28;20175;-74
2021/05/21 07:09:56;;;;;;;1.13;0.60;;;;;;;;;;5018009;28;20225;-73
2021/05/21 07:12:22;;;;;;;2.90;0.67;;;;;;;;;;5033819;28;20512;-73
2021/05/21 07:14:48;;;;;;;2.70;0.70;;;;;;;;;;5033966;28;20171;-74
2021/05/21 07:17:14;;;;;;;1.10;0.70;;;;;;;;;;5035021;28;20658;-74
2021/05/21 07:19:40;;;;;;;3.47;0.87;;;;;;;;;;5034783;28;20314;-74
2021/05/21 07:22:06;;;;;;;2.50;0.80;;;;;;;;;;5016993;28;20245;-73
2021/05/21 07:24:32;;;;;;;3.97;0.60;;;;;;;;;;5033723;28;20183;-73
2021/05/21 07:26:58;;;;;;;3.00;0.70;;;;;;;;;;5033610;28;20186;-74
2021/05/21 07:29:24;;;;;;;0.63;0.63;;;;;;;;;;5017109;28;20183;-74
2021/05/21 07:31:50;;;;;;;4.00;0.83;;;;;;;;;;5034416;28;20321;-73
2021/05/21 07:34:16;;;;;;;2.40;0.70;;;;;;;;;;5033258;28;20650;-73
2021/05/21 07:36:42;;;;;;;1.53;0.70;;;;;;;;;;5016951;28;20708;-74
2021/05/21 07:39:08;;;;;;;1.07;0.60;;;;;;;;;;5033479;28;20598;-74
2021/05/21 07:41:34;;;;;;;1.13;0.83;;;;;;;;;;5033132;28;20744;-73
2021/05/21 07:44:00;;;;;;;1.80;0.87;;;;;;;;;;5034700;28;20179;-73
2021/05/21 07:46:26;;;;;;;2.17;0.93;;;;;;;;;;5016961;28;20179;-73
2021/05/21 07:48:53;;;;;;;0.93;0.70;;;;;;;;;;5016661;28;20179;-74
2021/05/21 07:51:19;;;;;;;3.37;0.90;;;;;;;;;;5033108;28;20284;-74
2021/05/21 07:53:45;;;;;;;1.00;0.90;;;;;;;;;;5033272;28;20179;-73
2021/05/21 07:56:11;;;;;;;1.80;0.50;;;;;;;;;;5034505;28;20179;-74
2021/05/21 07:58:37;;;;;;;2.20;0.80;;;;;;;;;;5033073;28;20214;-73
2021/05/21 08:01:03;;;;;;;1.47;0.80;;;;;;;;;;5016351;28;20634;-73
2021/05/21 08:03:29;;;;;;;1.50;0.83;;;;;;;;;;5032048;28;20175;-74
2021/05/21 08:05:56;;;;;;;1.23;0.80;;;;;;;;;;5032988;28;20198;-74
2021/05/21 08:08:22;;;;;;;0.97;0.70;;;;;;;;;;5032883;28;20171;-73
2021/05/21 08:10:49;;;;;;;0.97;0.83;;;;;;;;;;5032666;28;20203;-73
2021/05/21 08:13:15;;;;;;;2.33;0.80;;;;;;;;;;5032855;28;20240;-74
2021/05/21 08:15:41;;;;;;;1.30;1.10;;;;;;;;;;5032866;28;20258;-73
2021/05/21 08:18:07;;;;;;;3.33;0.70;;;;;;;;;;5033839;28;20190;-74
2021/05/21 08:20:32;;;;;;;2.37;1.00;;;;;;;;;;5033729;28;20796;-73
2021/05/21 08:22:58;;;;;;;5.50;1.30;;;;;;;;;;5033677;28;20545;-74
2021/05/21 08:25:24;;;;;;;1.27;0.70;;;;;;;;;;5033842;28;20179;-74
2021/05/21 08:27:53;;;;;;;0.90;0.70;;;;;;;;;;5032494;28;20182;-74
2021/05/21 08:30:19;;;;;;;2.60;0.80;;;;;;;;;;5033655;28;20549;-74
2021/05/21 08:32:48;;;;;;;2.33;0.73;;;;;;;;;;5740673;23;20740;-78
2021/05/21 08:35:14;;;;;;;3.47;0.83;;;;;;;;;;5018761;28;20179;-79
2021/05/21 08:37:40;;;;;;;1.70;0.90;;;;;;;;;;5018562;28;20190;-79
2021/05/21 08:40:07;;;;;;;1.10;0.70;;;;;;;;;;5035503;28;20213;-79
2021/05/21 08:42:36;;;;;;;2.27;0.80;;;;;;;;;;5034642;28;20195;-78
2021/05/21 08:45:02;;;;;;;1.77;0.77;;;;;;;;;;5018781;28;20186;-79
2021/05/21 08:47:29;;;;;;;0.93;0.63;;;;;;;;;;5018563;28;20531;-79
2021/05/21 08:49:55;;;;;;;2.40;0.70;;;;;;;;;;5035728;28;20210;-80
2021/05/21 08:52:20;;;;;;;3.90;0.63;;;;;;;;;;5035235;28;20199;-79
2021/05/21 08:54:46;;;;;;;2.13;0.90;;;;;;;;;;5037595;28;20665;-79
2021/05/21 08:57:12;;;;;;;2.40;0.83;;;;;;;;;;5036370;28;20661;-79
2021/05/21 08:59:38;;;;;;;1.43;0.60;;;;;;;;;;5019155;28;20178;-80
2021/05/21 09:02:07;;;;;;;2.10;1.07;;;;;;;;;;5017756;28;20603;-80
2021/05/21 09:04:53;;;;;;;4.27;0.77;;;;;;;;;;5019069;28;20253;-79
2021/05/21 09:07:23;;;;;;;0.67;0.50;;;;;;;;;;5020077;28;20175;-78
2021/05/21 09:09:49;;;;;;;3.17;0.70;;;;;;;;;;5036281;28;20171;-80
2021/05/21 09:12:17;;;;;;;2.40;0.90;;;;;;;;;;5019306;28;20617;-80
2021/05/21 09:14:43;;;;;;;1.53;0.70;;;;;;;;;;5035559;28;20258;-79
2021/05/21 09:17:20;;;;;;;4.00;0.77;;;;;;;;;;5035535;28;20198;-79
2021/05/21 09:19:46;;;;;;;1.93;0.60;;;;;;;;;;5035252;28;20671;-79
2021/05/21 09:22:12;;;;;;;0.90;0.60;;;;;;;;;;5018549;28;20198;-79
2021/05/21 09:24:42;;;;;;;1.57;0.70;;;;;;;;;;5018542;28;20676;-79
2021/05/21 09:27:08;;;;;;;4.67;0.90;;;;;;;;;;5018546;28;20183;-79
2021/05/21 09:29:35;;;;;;;2.17;1.03;;;;;;;;;;5034718;28;20194;-78
2021/05/21 09:32:01;;;;;;;1.30;0.77;;;;;;;;;;5035753;28;20238;-79
2021/05/21 09:34:31;;;;;;;2.30;0.77;;;;;;;;;;5034587;28;20195;-79
2021/05/21 09:36:57;;;;;;;3.03;0.80;;;;;;;;;;5032072;28;20179;-78
2021/05/21 09:39:23;;;;;;;2.13;0.67;;;;;;;;;;5014805;28;20209;-77
2021/05/21 09:41:50;;;;;;;2.63;0.50;;;;;;;;;;5030969;28;20260;-78
2021/05/21 09:44:16;;;;;;;0.90;0.60;;;;;;;;;;5031263;28;20260;-78
2021/05/21 09:46:43;;;;;;;1.70;0.70;;;;;;;;;;5031044;28;20211;-78
2021/05/21 09:49:25;;;;;;;2.40;0.90;;;;;;;;;;5014949;28;20341;-78
2021/05/21 09:51:52;;;;;;;3.50;0.90;;;;;;;;;;5031010;28;20278;-78
2021/05/21 09:54:17;;;;;;;3.10;0.80;;;;;;;;;;5032456;28;20516;-78
2021/05/21 09:56:58;;;;;;;1.63;0.60;;;;;;;;;;5031414;28;20189;-78
2021/05/21 09:59:43;;;;;;;2.33;0.77;;;;;;;;;;5032467;28;20178;-78
2021/05/21 10:02:19;;;;;;;2.27;0.70;;;;;;;;;;5014340;28;20241;-78
2021/05/21 10:04:45;;;;;;;3.03;0.60;;;;;;;;;;5030977;28;20598;-78
2021/05/21 10:07:11;;;;;;;2.37;0.70;;;;;;;;;;5030916;28;20174;-78
2021/05/21 10:09:38;;;;;;;1.60;0.63;;;;;;;;;;5030918;28;20175;-77
2021/05/21 10:12:04;;;;;;;1.10;0.60;;;;;;;;;;5030743;28;20227;-78
2021/05/21 10:14:30;;;;;;;2.00;0.70;;;;;;;;;;5014516;28;20221;-78
2021/05/21 10:16:56;;;;;;;2.20;0.67;;;;;;;;;;5030910;28;20171;-78
2021/05/21 10:19:22;;;;;;;2.27;0.67;;;;;;;;;;5014664;28;20183;-77
2021/05/21 10:21:48;;;;;;;1.33;0.60;;;;;;;;;;5014030;28;20210;-77
2021/05/21 10:24:15;;;;;;;2.60;0.60;;;;;;;;;;5014245;28;20171;-78
2021/05/21 10:26:41;;;;;;;1.17;0.67;;;;;;;;;;5034145;28;20217;-77
2021/05/21 10:29:14;;;;;;;1.37;0.40;;;;;;;;;;5018194;28;20675;-78
2021/05/21 10:31:40;;;;;;;0.73;0.50;;;;;;;;;;5034403;28;20194;-78
2021/05/21 10:34:15;;;;;;;1.83;0.60;;;;;;;;;;5034757;28;20677;-79
2021/05/21 10:36:41;;;;;;;2.90;0.70;;;;;;;;;;5036020;28;20429;-78
2021/05/21 10:39:11;;;;;;;0.77;0.40;;;;;;;;;;5018230;28;20621;-78
2021/05/21 10:41:38;;;;;;;1.63;0.60;;;;;;;;;;5035535;28;20199;-78
2021/05/21 10:44:23;;;;;;;1.50;0.50;;;;;;;;;;5034431;28;20179;-77
2021/05/21 10:46:49;;;;;;;2.60;0.53;;;;;;;;;;5034408;28;20263;-78
2021/05/21 10:49:22;;;;;;;2.23;0.80;;;;;;;;;;5034704;28;20656;-78
2021/05/21 10:51:52;;;;;;;2.17;0.63;;;;;;;;;;5034286;28;20203;-78
2021/05/21 10:54:25;;;;;;;4.87;0.80;;;;;;;;;;5034267;28;20179;-78
2021/05/21 10:56:53;;;;;;;1.07;0.63;;;;;;;;;;5034517;28;20262;-78
2021/05/21 10:59:19;;;;;;;1.47;0.50;;;;;;;;;;5018117;28;20186;-77
2021/05/21 11:01:45;;;;;;;2.17;0.40;;;;;;;;;;5034028;28;20210;-78
2021/05/21 11:04:13;;;;;;;3.13;0.70;;;;;;;;;;5034235;28;20179;-78
2021/05/21 11:06:42;;;;;;;1.60;0.67;;;;;;;;;;5034435;28;20228;-78
2021/05/21 11:09:09;;;;;;;2.07;0.60;;;;;;;;;;5035159;28;20605;-77
2021/05/21 11:12:03;;;;;;;0.53;0.40;;;;;;;;;;5033879;28;20230;-78
2021/05/21 11:14:30;;;;;;;3.10;0.60;;;;;;;;;;5032301;28;20197;-77
2021/05/21 11:16:57;;;;;;;1.03;0.47;;;;;;;;;;5035124;28;20198;-77
2021/05/21 11:19:24;;;;;;;2.10;0.70;;;;;;;;;;5033877;28;20206;-78
2021/05/21 11:21:50;;;;;;;2.23;0.50;;;;;;;;;;5033558;28;20217;-78
2021/05/21 11:24:16;;;;;;;3.27;0.83;;;;;;;;;;5033869;28;20175;-78
2021/05/21 11:26:43;;;;;;;2.50;0.60;;;;;;;;;;5033888;28;20185;-78
2021/05/21 11:29:09;;;;;;;1.27;0.43;;;;;;;;;;5033597;28;20656;-78
2021/05/21 11:31:38;;;;;;;1.93;0.50;;;;;;;;;;5034554;28;20602;-79
2021/05/21 11:34:05;;;;;;;2.87;0.63;;;;;;;;;;5034722;28;20654;-77
2021/05/21 11:36:33;;;;;;;1.70;0.60;;;;;;;;;;5033275;28;20179;-77
2021/05/21 11:38:59;;;;;;;2.17;0.47;;;;;;;;;;5017257;28;20190;-78
2021/05/21 11:41:32;;;;;;;2.07;0.67;;;;;;;;;;5033108;28;20214;-78
2021/05/21 11:44:05;;;;;;;2.63;0.60;;;;;;;;;;5033327;28;20646;-77
2021/05/21 11:46:32;;;;;;;3.03;0.70;;;;;;;;;;5033308;28;20572;-77
2021/05/21 11:48:58;;;;;;;2.10;0.77;;;;;;;;;;5033460;28;20277;-78
2021/05/21 11:51:25;;;;;;;3.37;0.77;;;;;;;;;;5033766;28;20252;-78
2021/05/21 11:53:51;;;;;;;3.17;0.70;;;;;;;;;;5033186;28;20186;-78
2021/05/21 11:56:33;;;;;;;4.67;0.70;;;;;;;;;;5033163;28;20550;-78
2021/05/21 11:59:05;;;;;;;0.67;0.47;;;;;;;;;;5034071;28;20182;-78
2021/05/21 12:01:32;;;;;;;3.43;0.73;;;;;;;;;;5032714;28;20210;-78
2021/05/21 12:03:59;;;;;;;2.97;0.70;;;;;;;;;;5033030;28;20179;-78
2021/05/21 12:06:29;;;;;;;0.60;0.50;;;;;;;;;;5016667;28;20182;-78
2021/05/21 12:08:55;;;;;;;2.17;0.60;;;;;;;;;;5016612;28;20709;-77
2021/05/21 12:11:21;;;;;;;1.53;0.60;;;;;;;;;;5016294;28;20293;-78
2021/05/21 12:13:46;;;;;;;3.07;0.67;;;;;;;;;;5032835;28;20179;-78
2021/05/21 12:16:13;;;;;;;3.83;1.23;;;;;;;;;;5016380;28;20214;-78
2021/05/21 12:18:39;;;;;;;0.83;0.47;;;;;;;;;;5016094;28;20190;-78
2021/05/21 12:21:06;;;;;;;1.47;0.60;;;;;;;;;;5032391;28;20338;-77
2021/05/21 12:23:34;;;;;;;1.37;0.50;;;;;;;;;;5032829;28;20386;-78
2021/05/21 12:26:00;;;;;;;2.47;0.77;;;;;;;;;;5016331;28;20179;-78
2021/05/21 12:28:26;;;;;;;1.70;0.40;;;;;;;;;;5032488;28;20175;-77
2021/05/21 12:30:52;;;;;;;1.63;0.53;;;;;;;;;;5032389;28;20179;-77
2021/05/21 12:33:18;;;;;;;1.27;0.53;;;;;;;;;;5032262;28;20290;-78
2021/05/21 12:35:44;;;;;;;1.40;0.70;;;;;;;;;;5032533;28;20183;-77
2021/05/21 12:38:10;;;;;;;6.00;0.80;;;;;;;;;;5032409;28;20178;-77
2021/05/21 12:40:48;;;;;;;4.03;0.50;;;;;;;;;;5015732;28;20210;-78
2021/05/21 12:43:15;;;;;;;3.30;0.57;;;;;;;;;;5033238;28;20539;-77
2021/05/21 12:46:03;;;;;;;2.90;0.73;;;;;;;;;;5032146;28;20244;-78
2021/05/21 12:48:39;;;;;;;1.83;0.40;;;;;;;;;;5032775;28;20702;-77
2021/05/21 12:51:16;;;;;;;2.30;0.67;;;;;;;;;;5015365;28;20616;-78
2021/05/21 12:53:42;;;;;;;1.40;0.40;;;;;;;;;;5015650;28;20185;-78
2021/05/21 12:56:08;;;;;;;2.13;0.53;;;;;;;;;;5032116;28;20183;-78
2021/05/21 12:58:41;;;;;;;0.70;0.50;;;;;;;;;;5032053;28;20189;-77
2021/05/21 13:01:07;;;;;;;3.10;0.70;;;;;;;;;;5031913;28;20584;-78
2021/05/21 13:03:55;;;;;;;2.10;0.60;;;;;;;;;;5031914;28;20197;-77
2021/05/21 13:06:29;;;;;;;2.43;0.70;;;;;;;;;;5033133;28;20273;-77
2021/05/21 13:08:57;;;;;;;1.73;0.50;;;;;;;;;;5033255;28;20181;-78
2021/05/21 13:11:23;;;;;;;0.83;0.43;;;;;;;;;;5031683;28;20217;-78
2021/05/21 13:13:49;;;;;;;3.00;0.73;;;;;;;;;;5031704;28;20552;-78
2021/05/21 13:16:15;;;;;;;0.97;0.50;;;;;;;;;;5015363;28;20187;-78
2021/05/21 13:18:41;;;;;;;2.20;0.40;;;;;;;;;;5031770;28;20174;-77
2021/05/21 13:21:08;;;;;;;4.47;0.60;;;;;;;;;;5015147;28;20219;-78
2021/05/21 13:23:34;;;;;;;1.27;0.40;;;;;;;;;;5015610;28;20589;-77
2021/05/21 13:26:06;;;;;;;3.23;0.60;;;;;;;;;;5015161;28;20180;-77
2021/05/21 13:28:41;;;;;;;1.07;0.40;;;;;;;;;;5031497;28;20262;-78
2021/05/21 13:31:07;;;;;;;1.37;0.57;;;;;;;;;;5014945;28;20720;-78
2021/05/21 13:33:33;;;;;;;2.57;0.37;;;;;;;;;;5014844;28;20194;-78
2021/05/21 13:36:00;;;;;;;1.23;0.50;;;;;;;;;;5031504;28;20209;-78
2021/05/21 13:38:26;;;;;;;1.57;0.60;;;;;;;;;;5014872;28;20548;-77
2021/05/21 13:40:52;;;;;;;3.10;0.80;;;;;;;;;;5032313;28;20249;-77
2021/05/21 13:43:19;;;;;;;5.10;0.83;;;;;;;;;;5014728;28;20187;-78
2021/05/21 13:45:45;;;;;;;1.80;0.60;;;;;;;;;;5031173;28;20178;-78
2021/05/21 13:48:11;;;;;;;1.47;0.63;;;;;;;;;;5031258;28;20665;-77
2021/05/21 13:50:39;;;;;;;2.47;0.50;;;;;;;;;;5031152;28;20179;-78
2021/05/21 13:53:05;;;;;;;1.13;0.40;;;;;;;;;;5032111;28;20201;-78
2021/05/21 13:55:31;;;;;;;3.43;0.63;;;;;;;;;;5032085;28;20557;-78
2021/05/21 13:57:57;;;;;;;4.23;0.73;;;;;;;;;;5015323;28;20183;-78
2021/05/21 14:00:23;;;;;;;0.63;0.30;;;;;;;;;;5013776;28;20203;-77
2021/05/21 14:02:49;;;;;;;1.50;0.50;;;;;;;;;;5031064;28;20257;-78
2021/05/21 14:05:15;;;;;;;0.73;0.40;;;;;;;;;;5014682;28;20202;-77
2021/05/21 14:07:41;;;;;;;1.23;0.70;;;;;;;;;;5030922;28;20175;-77
2021/05/21 14:10:07;;;;;;;2.13;0.43;;;;;;;;;;5030812;28;20702;-78
2021/05/21 14:12:33;;;;;;;0.60;0.50;;;;;;;;;;5031988;28;20522;-77
2021/05/21 14:14:59;;;;;;;1.50;0.60;;;;;;;;;;5031007;28;20175;-78
2021/05/21 14:17:25;;;;;;;2.37;0.60;;;;;;;;;;5014671;28;20190;-78
2021/05/21 14:19:51;;;;;;;1.80;0.43;;;;;;;;;;5032456;28;20179;-77
2021/05/21 14:22:21;;;;;;;1.73;0.50;;;;;;;;;;5014228;28;20305;-78
2021/05/21 14:24:47;;;;;;;2.43;0.60;;;;;;;;;;5015031;28;20269;-78
2021/05/21 14:27:13;;;;;;;2.30;0.50;;;;;;;;;;5014293;28;20179;-77
2021/05/21 14:29:39;;;;;;;2.03;0.63;;;;;;;;;;5014303;28;20229;-78
2021/05/21 14:32:05;;;;;;;0.47;0.40;;;;;;;;;;5054503;23;20226;-76
2021/05/21 14:34:31;;;;;;;3.97;0.57;;;;;;;;;;5030963;28;20517;-76
2021/05/21 14:36:58;;;;;;;2.37;0.57;;;;;;;;;;5030630;28;20236;-77
2021/05/21 14:39:24;;;;;;;2.70;0.50;;;;;;;;;;5030407;28;20170;-76
2021/05/21 14:41:50;;;;;;;2.20;0.70;;;;;;;;;;5030596;28;20217;-76
2021/05/21 14:44:16;;;;;;;0.60;0.40;;;;;;;;;;5030429;28;20198;-77
2021/05/21 14:46:42;;;;;;;1.43;0.60;;;;;;;;;;5030570;28;20177;-77